Time;durP1;ratioP1;P1;durP2;ratioP2;P2;SDS_P1;SDS_P2;PMS_P1;PMS_P2;Temp;Humidity;BMP_temperature;BMP_pressure;BME280_temperature;BME280_humidity;BME280_pressure;Samples;Min_cycle;Max_cycle;Signal;HPM_P1;HPM_P2
2022/09/16 00:01:44;;;;;;;3.80;0.87;;;;;;;21.10;50.10;101059.28;5031662;28;20270;-72
2022/09/16 00:04:10;;;;;;;3.20;0.93;;;;;;;21.07;50.11;101041.84;5031179;28;21162;-72
2022/09/16 00:06:35;;;;;;;2.67;0.87;;;;;;;21.01;49.74;101042.38;5031477;28;20087;-72
2022/09/16 00:09:01;;;;;;;3.95;1.27;;;;;;;21.07;49.94;101046.31;5031005;28;20377;-72
2022/09/16 00:11:27;;;;;;;2.90;1.00;;;;;;;20.97;49.72;101031.25;5031295;28;20167;-74
2022/09/16 00:13:52;;;;;;;3.85;1.00;;;;;;;20.93;49.89;101023.69;5031322;28;20497;-73
2022/09/16 00:16:20;;;;;;;2.83;0.90;;;;;;;21.09;50.06;101052.28;5031138;28;21256;-75
2022/09/16 00:18:46;;;;;;;2.88;1.10;;;;;;;21.07;50.01;101052.44;5031382;28;20377;-73
2022/09/16 00:21:12;;;;;;;3.13;1.00;;;;;;;21.07;49.72;101043.66;5031015;28;20835;-72
2022/09/16 00:23:37;;;;;;;4.10;1.10;;;;;;;21.02;49.77;101039.59;5031432;28;20033;-71
2022/09/16 00:26:03;;;;;;;4.82;1.20;;;;;;;21.02;50.23;101036.13;5031144;28;20050;-72
2022/09/16 00:28:29;;;;;;;2.95;1.15;;;;;;;21.04;49.74;101042.13;5031162;28;20021;-73
2022/09/16 00:30:58;;;;;;;3.20;1.05;;;;;;;21.02;49.90;101044.91;5030703;28;20075;-73
2022/09/16 00:33:24;;;;;;;3.65;1.10;;;;;;;21.02;49.79;101039.59;5030800;28;20040;-72
2022/09/16 00:35:49;;;;;;;5.30;1.33;;;;;;;21.01;49.73;101034.44;5031772;28;20069;-74
2022/09/16 00:38:15;;;;;;;3.05;0.90;;;;;;;21.00;49.78;101035.44;5031147;28;20523;-73
2022/09/16 00:40:48;;;;;;;2.80;1.30;;;;;;;20.94;49.96;101020.09;5032476;28;20029;-72
2022/09/16 00:43:16;;;;;;;2.85;0.90;;;;;;;20.97;50.20;101033.88;5037367;28;20262;-72
2022/09/16 00:45:45;;;;;;;3.45;1.10;;;;;;;20.97;49.78;101025.13;5034959;28;20470;-73
2022/09/16 00:48:15;;;;;;;2.03;0.90;;;;;;;20.96;49.72;101026.91;5034540;28;20040;-72
2022/09/16 00:50:48;;;;;;;2.53;1.10;;;;;;;20.95;49.70;101021.75;5035204;28;20033;-71
2022/09/16 00:53:19;;;;;;;2.50;1.10;;;;;;;20.98;49.54;101022.31;5035216;28;20033;-71
2022/09/16 00:55:45;;;;;;;3.22;1.00;;;;;;;20.93;49.60;101013.94;5034175;28;20021;-71
2022/09/16 00:58:19;;;;;;;2.95;1.38;;;;;;;20.91;49.58;101010.59;5035194;28;20039;-71
2022/09/16 01:00:44;;;;;;;3.17;1.00;;;;;;;20.96;49.50;101015.47;5034442;28;20376;-72
2022/09/16 01:03:09;;;;;;;2.22;0.77;;;;;;;20.98;49.51;101016.16;5034531;28;20087;-72
2022/09/16 01:05:36;;;;;;;3.55;0.90;;;;;;;20.90;49.65;101013.38;5034544;28;20053;-72
2022/09/16 01:08:02;;;;;;;3.42;1.20;;;;;;;20.93;49.86;101013.09;5034414;28;20040;-73
2022/09/16 01:10:27;;;;;;;2.70;1.00;;;;;;;20.87;49.58;101011.88;5033572;28;20037;-72
2022/09/16 01:13:05;;;;;;;3.65;1.20;;;;;;;20.92;49.55;101020.22;5033234;28;20472;-74
2022/09/16 01:15:51;;;;;;;3.08;1.20;;;;;;;20.93;49.63;101015.75;5032372;28;20033;-73
2022/09/16 01:18:32;;;;;;;3.17;1.20;;;;;;;20.91;49.35;101018.53;5031994;28;20033;-75
2022/09/16 01:21:24;;;;;;;3.95;1.20;;;;;;;20.92;49.56;101020.22;5034585;28;20156;-72
2022/09/16 01:24:03;;;;;;;2.95;1.10;;;;;;;20.93;49.26;101026.34;5034043;28;20033;-73
2022/09/16 01:27:01;;;;;;;2.90;1.08;;;;;;;20.91;49.16;101018.53;5033237;28;20049;-73
2022/09/16 01:29:53;;;;;;;3.38;1.20;;;;;;;20.91;49.51;101009.78;5032851;28;20090;-73
2022/09/16 01:32:28;;;;;;;5.68;1.48;;;;;;;20.90;49.56;101013.38;5032623;28;20033;-72
2022/09/16 01:35:19;;;;;;;2.90;1.10;;;;;;;20.88;49.45;101018.81;5033614;28;20485;-73
2022/09/16 01:38:08;;;;;;;3.10;1.20;;;;;;;20.82;49.14;101008.78;5033579;28;20029;-74
2022/09/16 01:40:48;;;;;;;3.25;1.00;;;;;;;20.86;48.99;101017.31;5033659;28;20033;-72
2022/09/16 01:43:24;;;;;;;3.30;1.10;;;;;;;20.84;49.61;101018.28;5033704;28;20054;-73
2022/09/16 01:45:55;;;;;;;3.13;1.13;;;;;;;20.84;49.53;101018.28;5033917;28;20051;-73
2022/09/16 01:48:36;;;;;;;4.22;1.10;;;;;;;20.86;49.39;101010.19;5033366;28;20034;-72
2022/09/16 01:51:06;;;;;;;5.05;1.10;;;;;;;20.85;49.13;101013.78;5034106;28;20026;-72
2022/09/16 01:53:37;;;;;;;3.17;1.10;;;;;;;20.85;48.93;101011.16;5033345;28;20488;-73
2022/09/16 01:56:15;;;;;;;2.88;1.00;;;;;;;20.80;49.08;101000.13;5033880;28;20030;-74
2022/09/16 01:58:45;;;;;;;2.88;1.27;;;;;;;20.82;48.99;101006.13;5033408;28;20030;-72
2022/09/16 02:01:27;;;;;;;4.43;1.13;;;;;;;20.84;49.01;101014.78;5033284;28;20061;-72
2022/09/16 02:03:59;;;;;;;2.55;0.90;;;;;;;20.77;49.06;101006.53;5034090;28;20065;-72
2022/09/16 02:06:26;;;;;;;3.85;1.15;;;;;;;20.78;49.01;101010.88;5033360;28;20025;-73
2022/09/16 02:08:56;;;;;;;4.00;1.30;;;;;;;20.84;48.87;101030.69;5033148;28;20029;-72
2022/09/16 02:11:22;;;;;;;3.55;1.10;;;;;;;20.78;49.25;101024.13;5032703;28;20035;-74
2022/09/16 02:14:02;;;;;;;4.68;1.17;;;;;;;20.78;48.82;101023.28;5033371;28;20033;-74
2022/09/16 02:16:34;;;;;;;2.63;1.10;;;;;;;20.76;49.08;101015.47;5033206;28;20036;-72
2022/09/16 02:19:05;;;;;;;2.42;0.82;;;;;;;20.79;49.15;101023.16;5032940;28;20037;-73
2022/09/16 02:21:36;;;;;;;4.00;1.20;;;;;;;20.75;48.83;101019.09;5033185;28;20381;-73
2022/09/16 02:24:08;;;;;;;4.82;1.23;;;;;;;20.79;49.01;101024.94;5033157;28;20036;-72
2022/09/16 02:26:40;;;;;;;4.20;1.30;;;;;;;20.72;48.53;101008.78;5033491;28;20279;-72
2022/09/16 02:29:13;;;;;;;4.43;1.10;;;;;;;20.78;49.07;101024.13;5033200;28;20039;-75
2022/09/16 02:31:41;;;;;;;3.42;1.15;;;;;;;20.78;48.84;101018.81;5032010;28;20151;-72
2022/09/16 02:34:13;;;;;;;2.80;1.10;;;;;;;20.74;48.60;101011.28;5031420;28;20916;-72
2022/09/16 02:36:44;;;;;;;2.13;0.88;;;;;;;20.74;48.59;101014.75;5032537;28;20108;-72
2022/09/16 02:39:13;;;;;;;2.35;1.00;;;;;;;20.75;48.52;101021.72;5033221;28;20082;-73
2022/09/16 02:41:40;;;;;;;2.92;1.00;;;;;;;20.73;48.83;101015.75;5032551;28;20116;-73
2022/09/16 02:44:06;;;;;;;3.28;1.08;;;;;;;20.75;48.77;101013.78;5031490;28;20036;-72
2022/09/16 02:46:54;;;;;;;2.80;1.20;;;;;;;20.75;48.45;101005.84;5031932;28;20533;-74
2022/09/16 02:49:25;;;;;;;4.95;1.20;;;;;;;20.78;48.67;101010.88;5032559;28;20485;-74
2022/09/16 02:52:04;;;;;;;3.90;1.30;;;;;;;20.78;48.61;101023.28;5031198;28;20095;-72
2022/09/16 02:54:40;;;;;;;3.88;1.45;;;;;;;20.76;48.96;101017.28;5031550;28;20082;-72
2022/09/16 02:57:06;;;;;;;3.28;1.20;;;;;;;20.74;48.64;101008.63;5032436;28;20107;-72
2022/09/16 02:59:32;;;;;;;3.20;1.13;;;;;;;20.74;48.40;101017.41;5032138;28;20124;-71
2022/09/16 03:01:58;;;;;;;3.38;1.10;;;;;;;20.77;48.72;101013.66;5032720;28;20088;-74
2022/09/16 03:04:24;;;;;;;2.83;1.10;;;;;;;20.74;48.50;101016.56;5031444;28;20076;-74
2022/09/16 03:06:49;;;;;;;4.65;1.10;;;;;;;20.78;48.74;101026.75;5032317;28;20124;-73
2022/09/16 03:09:17;;;;;;;4.10;1.10;;;;;;;20.77;48.38;101018.94;5031701;28;20920;-71
2022/09/16 03:12:06;;;;;;;4.10;1.13;;;;;;;20.69;48.48;101009.03;5032468;28;20025;-72
2022/09/16 03:14:50;;;;;;;3.70;1.17;;;;;;;20.75;48.61;101015.63;5031951;28;20032;-72
2022/09/16 03:18:05;;;;;;;3.33;1.10;;;;;;;20.76;48.38;101017.28;5032341;28;20117;-73
2022/09/16 03:20:46;;;;;;;3.05;0.88;;;;;;;20.71;48.54;100996.53;5019606;28;20478;-72
2022/09/16 03:23:43;;;;;;;2.28;1.00;;;;;;;20.76;48.43;101007.53;5031573;28;20033;-72
2022/09/16 03:26:21;;;;;;;3.47;1.20;;;;;;;20.75;48.58;101007.66;5031668;28;20128;-73
2022/09/16 03:29:11;;;;;;;2.97;1.08;;;;;;;20.73;48.45;101015.75;5031770;28;20037;-71
2022/09/16 03:31:50;;;;;;;4.32;1.10;;;;;;;20.71;48.54;101011.56;5031454;28;20022;-71
2022/09/16 03:34:32;;;;;;;3.60;1.10;;;;;;;20.68;48.76;101001.22;5031705;28;20560;-73
2022/09/16 03:37:02;;;;;;;3.05;0.90;;;;;;;20.69;48.59;101003.75;5031893;28;20037;-73
2022/09/16 03:39:28;;;;;;;2.42;0.80;;;;;;;20.74;48.32;101008.63;5031561;28;20394;-72
2022/09/16 03:41:58;;;;;;;3.67;1.10;;;;;;;20.71;48.58;101006.25;5031254;28;20575;-73
2022/09/16 03:44:30;;;;;;;2.78;1.02;;;;;;;20.73;48.68;101009.59;5031786;28;20033;-73
2022/09/16 03:46:56;;;;;;;3.03;1.02;;;;;;;20.68;48.68;100998.59;5030583;28;20052;-73
2022/09/16 03:49:21;;;;;;;4.30;1.05;;;;;;;20.67;48.71;101003.06;5029016;28;20404;-72
2022/09/16 03:51:46;;;;;;;2.67;1.00;;;;;;;20.68;48.84;101006.53;5031513;28;20032;-72
2022/09/16 03:54:12;;;;;;;2.93;1.00;;;;;;;20.68;48.65;101012.69;5031464;28;20061;-73
2022/09/16 03:56:37;;;;;;;3.13;1.00;;;;;;;20.66;48.28;101006.66;5029698;28;20281;-72
2022/09/16 03:59:02;;;;;;;2.53;1.00;;;;;;;20.66;48.31;101004.00;5031013;28;20040;-74
2022/09/16 04:01:27;;;;;;;3.03;0.98;;;;;;;20.63;48.42;101005.13;5031425;28;20274;-73
2022/09/16 04:03:53;;;;;;;2.70;0.80;;;;;;;20.66;48.51;101006.66;5030059;28;20040;-73
2022/09/16 04:06:18;;;;;;;2.20;1.00;;;;;;;20.69;48.52;101013.50;5031472;28;20270;-72
2022/09/16 04:08:44;;;;;;;2.30;0.90;;;;;;;20.67;48.64;101011.00;5031102;28;20902;-72
2022/09/16 04:11:09;;;;;;;3.27;0.90;;;;;;;20.64;48.49;101000.69;5031346;28;20052;-73
2022/09/16 04:13:35;;;;;;;3.50;1.02;;;;;;;20.69;48.58;101011.69;5030540;28;20293;-73
2022/09/16 04:16:02;;;;;;;4.63;1.00;;;;;;;20.63;48.50;101004.25;5030569;28;20029;-73
2022/09/16 04:18:29;;;;;;;2.65;0.90;;;;;;;20.63;48.43;101004.25;5030784;28;20041;-73
2022/09/16 04:20:59;;;;;;;3.90;1.08;;;;;;;20.61;48.59;101015.00;5030572;28;20913;-73
2022/09/16 04:23:25;;;;;;;2.58;0.95;;;;;;;20.62;48.46;101011.38;5030918;28;20075;-73
2022/09/16 04:25:58;;;;;;;2.17;0.80;;;;;;;20.64;48.33;101011.28;5030928;28;20147;-73
2022/09/16 04:28:24;;;;;;;4.28;1.25;;;;;;;20.59;48.58;101000.22;5030645;28;20041;-72
2022/09/16 04:30:49;;;;;;;2.17;0.90;;;;;;;20.62;48.25;101011.38;5030414;28;20071;-76
2022/09/16 04:33:14;;;;;;;1.95;1.00;;;;;;;20.61;48.53;101009.69;5029840;28;20068;-73
2022/09/16 04:35:40;;;;;;;3.15;1.10;;;;;;;20.61;48.55;101011.50;5030221;28;20477;-71
2022/09/16 04:38:05;;;;;;;2.67;1.00;;;;;;;20.58;48.67;101014.44;5031626;28;20025;-73
2022/09/16 04:40:30;;;;;;;2.53;0.90;;;;;;;20.57;48.39;101021.53;5031126;28;20037;-73
2022/09/16 04:42:55;;;;;;;2.90;0.93;;;;;;;20.61;48.41;101027.41;5031042;28;21116;-71
2022/09/16 04:45:21;;;;;;;3.60;0.82;;;;;;;20.62;48.64;101019.31;5030440;28;20262;-72
2022/09/16 04:47:46;;;;;;;2.77;1.00;;;;;;;20.59;48.82;101016.94;5030632;28;20048;-72
2022/09/16 04:50:12;;;;;;;1.92;0.80;;;;;;;20.51;48.29;100995.63;5030537;28;20293;-71
2022/09/16 04:52:37;;;;;;;3.53;1.00;;;;;;;20.60;48.29;100999.22;5030861;28;20427;-73
2022/09/16 04:55:02;;;;;;;1.87;0.80;;;;;;;20.62;48.76;101006.09;5030687;28;20033;-72
2022/09/16 04:57:31;;;;;;;3.10;0.80;;;;;;;20.58;48.75;100999.38;5029561;28;20079;-73
2022/09/16 04:59:57;;;;;;;3.05;1.00;;;;;;;20.61;48.79;101006.22;5030933;28;21165;-74
2022/09/16 05:02:22;;;;;;;2.15;1.10;;;;;;;20.59;48.48;101006.34;5030234;28;20033;-72
2022/09/16 05:04:47;;;;;;;3.05;1.00;;;;;;;20.62;48.63;101006.09;5030922;28;20036;-72
2022/09/16 05:07:13;;;;;;;3.42;1.00;;;;;;;20.53;48.59;100998.94;5031083;28;20507;-73
2022/09/16 05:09:38;;;;;;;2.92;0.80;;;;;;;20.62;48.73;101007.91;5028142;28;20412;-72
2022/09/16 05:12:04;;;;;;;3.42;0.95;;;;;;;20.62;48.65;101018.50;5030724;28;20044;-71
2022/09/16 05:14:29;;;;;;;3.25;0.93;;;;;;;20.57;48.93;101007.44;5030307;28;20420;-72
2022/09/16 05:16:54;;;;;;;2.10;0.80;;;;;;;20.62;48.79;101013.19;5021061;28;20041;-71
2022/09/16 05:19:19;;;;;;;3.63;1.10;;;;;;;20.56;48.81;101009.28;5030572;28;20255;-72
2022/09/16 05:21:45;;;;;;;2.57;0.87;;;;;;;20.56;48.57;101014.56;5030809;28;20037;-72
2022/09/16 05:24:11;;;;;;;3.17;0.93;;;;;;;20.59;48.52;101024.88;5030589;28;20270;-72
2022/09/16 05:26:40;;;;;;;4.05;1.10;;;;;;;20.58;48.49;101023.19;5030661;28;21026;-72
2022/09/16 05:29:09;;;;;;;3.50;1.08;;;;;;;20.56;48.48;101027.81;5033578;28;20446;-71
2022/09/16 05:31:36;;;;;;;3.30;0.90;;;;;;;20.58;48.29;101030.31;5033862;28;20029;-72
2022/09/16 05:34:11;;;;;;;3.92;1.02;;;;;;;20.61;48.51;101030.06;5033620;28;20041;-73
2022/09/16 05:36:40;;;;;;;2.70;0.85;;;;;;;20.56;48.53;101014.56;5034369;28;20483;-72
2022/09/16 05:39:06;;;;;;;3.03;0.93;;;;;;;20.60;48.89;101029.22;5034199;28;20033;-72
2022/09/16 05:41:31;;;;;;;3.28;0.80;;;;;;;20.50;48.60;101014.28;5033715;28;20489;-73
2022/09/16 05:44:00;;;;;;;3.10;1.00;;;;;;;20.59;48.62;101029.34;5033584;28;20120;-71
2022/09/16 05:46:27;;;;;;;3.28;0.90;;;;;;;20.59;48.54;101024.88;5033827;28;20040;-72
2022/09/16 05:48:52;;;;;;;2.28;0.85;;;;;;;20.57;48.57;101020.69;5033857;28;20029;-73
2022/09/16 05:51:20;;;;;;;2.40;0.80;;;;;;;20.57;48.53;101024.19;5033871;28;20029;-73
2022/09/16 05:53:46;;;;;;;2.03;0.80;;;;;;;20.54;48.78;101016.53;5033782;28;20040;-72
2022/09/16 05:56:16;;;;;;;2.60;0.88;;;;;;;20.55;48.72;101017.34;5033546;28;20033;-73
2022/09/16 05:58:42;;;;;;;1.45;0.70;;;;;;;20.61;48.32;101027.41;5033462;28;20056;-74
2022/09/16 06:01:16;;;;;;;2.25;0.80;;;;;;;20.55;48.89;101009.41;5033134;28;20033;-73
2022/09/16 06:03:42;;;;;;;2.92;0.90;;;;;;;20.57;48.95;101015.41;5033616;28;20029;-72
2022/09/16 06:06:24;;;;;;;2.15;0.70;;;;;;;20.60;48.74;101023.94;5032980;28;20078;-73
2022/09/16 06:08:51;;;;;;;2.13;0.73;;;;;;;20.62;48.67;101021.97;5033363;28;20033;-72
2022/09/16 06:11:17;;;;;;;1.75;0.75;;;;;;;20.61;48.79;101024.75;5033215;28;20137;-72
2022/09/16 06:13:42;;;;;;;1.93;0.60;;;;;;;20.61;49.01;101027.41;5033115;28;20120;-72
2022/09/16 06:16:09;;;;;;;2.30;0.82;;;;;;;20.58;48.90;101028.50;5033204;28;20257;-73
2022/09/16 06:18:35;;;;;;;3.78;0.93;;;;;;;20.52;48.55;101023.78;5033149;28;20040;-72
2022/09/16 06:21:06;;;;;;;1.35;0.70;;;;;;;20.55;49.06;101026.13;5033688;28;20033;-74
2022/09/16 06:23:33;;;;;;;2.78;0.80;;;;;;;20.52;48.89;101015.84;5033121;28;20115;-70
2022/09/16 06:26:00;;;;;;;2.67;0.70;;;;;;;20.63;49.19;101033.38;5034771;28;20041;-70
2022/09/16 06:28:25;;;;;;;3.30;0.85;;;;;;;20.64;49.39;101040.41;5033939;28;20856;-71
2022/09/16 06:31:00;;;;;;;2.28;0.77;;;;;;;20.65;49.32;101047.38;5034716;28;20037;-70
2022/09/16 06:33:27;;;;;;;5.45;1.00;;;;;;;20.65;49.63;101036.78;5034869;28;20037;-71
2022/09/16 06:35:52;;;;;;;2.90;0.70;;;;;;;20.60;49.56;101042.47;5038958;28;20033;-70
2022/09/16 06:38:17;;;;;;;3.03;0.90;;;;;;;20.60;49.76;101037.16;5032971;28;20087;-71
2022/09/16 06:40:43;;;;;;;3.47;0.70;;;;;;;20.61;49.81;101043.28;5031090;28;20099;-73
2022/09/16 06:43:08;;;;;;;2.97;0.70;;;;;;;20.63;49.63;101047.47;5031633;28;20477;-73
2022/09/16 06:45:34;;;;;;;3.92;0.80;;;;;;;20.64;50.02;101048.34;5032478;28;20277;-71
2022/09/16 06:47:59;;;;;;;3.93;0.80;;;;;;;20.65;49.84;101050.84;5030839;28;20033;-68
2022/09/16 06:50:25;;;;;;;1.75;0.70;;;;;;;20.59;49.91;101046.06;5029380;28;20900;-72
2022/09/16 06:52:50;;;;;;;2.67;0.80;;;;;;;20.59;49.69;101046.06;5031959;28;20029;-73
2022/09/16 06:55:16;;;;;;;5.00;0.97;;;;;;;20.60;50.16;101054.84;5031070;28;20477;-71
2022/09/16 06:57:41;;;;;;;4.28;0.90;;;;;;;20.67;49.96;101055.19;5030022;28;20369;-73
2022/09/16 07:00:07;;;;;;;2.77;0.90;;;;;;;20.67;49.92;101049.91;5032232;28;20438;-72
2022/09/16 07:02:34;;;;;;;2.22;0.80;;;;;;;20.66;50.37;101051.69;5030847;28;20274;-72
2022/09/16 07:05:00;;;;;;;5.60;1.00;;;;;;;20.72;50.03;101058.25;5029902;28;20035;-72
2022/09/16 07:07:28;;;;;;;4.03;0.98;;;;;;;20.68;49.90;101049.75;5031142;28;20045;-73
2022/09/16 07:09:54;;;;;;;4.10;0.80;;;;;;;20.71;50.22;101046.84;5030958;28;20067;-72
2022/09/16 07:12:19;;;;;;;2.45;0.80;;;;;;;20.71;50.18;101053.94;5029379;28;20100;-71
2022/09/16 07:14:44;;;;;;;4.53;0.83;;;;;;;20.70;49.89;101049.63;5031417;28;20483;-72
2022/09/16 07:17:10;;;;;;;3.35;0.90;;;;;;;20.58;50.25;101022.38;5032029;28;20627;-71
2022/09/16 07:19:35;;;;;;;2.80;0.80;;;;;;;20.73;50.15;101050.19;5032551;28;20053;-70
2022/09/16 07:22:00;;;;;;;2.87;0.70;;;;;;;20.74;50.18;101049.19;5032871;28;20118;-71
2022/09/16 07:24:25;;;;;;;4.30;0.90;;;;;;;20.78;50.22;101058.53;5032834;28;20254;-71
2022/09/16 07:26:51;;;;;;;3.83;0.83;;;;;;;20.76;50.39;101060.50;5031806;28;20053;-71
2022/09/16 07:29:17;;;;;;;5.60;0.70;;;;;;;20.74;49.72;101053.66;5032198;28;20258;-73
2022/09/16 07:31:43;;;;;;;2.85;0.80;;;;;;;20.75;49.92;101063.28;5031660;28;20556;-68
2022/09/16 07:34:09;;;;;;;2.65;0.70;;;;;;;20.81;49.74;101071.50;5032485;28;20536;-68
2022/09/16 07:36:41;;;;;;;3.38;0.80;;;;;;;20.80;50.02;101077.78;5031848;28;20025;-71
2022/09/16 07:39:07;;;;;;;3.85;0.90;;;;;;;20.79;49.95;101068.19;5031128;28;20032;-71
2022/09/16 07:41:35;;;;;;;1.75;0.60;;;;;;;20.84;49.83;101057.16;5031618;28;20114;-70
2022/09/16 07:44:02;;;;;;;1.73;0.65;;;;;;;20.87;50.33;101066.63;5031654;28;20047;-71
2022/09/16 07:46:31;;;;;;;1.95;0.60;;;;;;;20.88;50.22;101079.75;5031188;28;20040;-72
2022/09/16 07:48:57;;;;;;;2.75;0.68;;;;;;;20.87;50.32;101083.38;5031685;28;20111;-70
2022/09/16 07:51:24;;;;;;;3.53;0.73;;;;;;;20.86;50.29;101075.56;5030535;28;20052;-73
2022/09/16 07:53:55;;;;;;;2.30;0.77;;;;;;;20.89;50.40;101081.44;5031475;28;20367;-73
2022/09/16 07:56:24;;;;;;;3.40;0.70;;;;;;;20.89;50.33;101070.84;5031537;28;20032;-71
2022/09/16 07:58:49;;;;;;;2.83;0.70;;;;;;;20.86;49.93;101065.81;5031691;28;20033;-70
2022/09/16 08:01:15;;;;;;;3.75;0.90;;;;;;;20.86;50.14;101075.56;5031413;28;20044;-71
2022/09/16 08:03:42;;;;;;;2.42;0.52;;;;;;;20.87;50.16;101080.75;5031091;28;20034;-70
2022/09/16 08:06:13;;;;;;;4.05;1.00;;;;;;;20.87;50.47;101088.69;5031489;28;20032;-79
2022/09/16 08:08:48;;;;;;;4.75;0.80;;;;;;;20.87;50.59;101099.28;5032842;28;20041;-79
2022/09/16 08:11:14;;;;;;;3.75;0.80;;;;;;;20.78;50.68;101094.81;5032076;28;20533;-80
2022/09/16 08:13:42;;;;;;;3.80;1.00;;;;;;;20.79;50.55;101088.50;5030610;28;20066;-79
2022/09/16 08:16:10;;;;;;;3.70;0.95;;;;;;;20.83;50.37;101087.28;5030376;28;20033;-78
2022/09/16 08:18:36;;;;;;;3.28;0.80;;;;;;;20.81;50.19;101087.41;5031276;28;20112;-76
2022/09/16 08:21:30;;;;;;;6.80;0.97;;;;;;;20.88;50.70;101093.00;5030660;28;20514;-78
2022/09/16 08:23:56;;;;;;;4.80;0.88;;;;;;;20.90;50.37;101084.91;5030283;28;20289;-79
2022/09/16 08:26:22;;;;;;;5.97;1.00;;;;;;;20.96;50.57;101093.13;5036397;28;20443;-81
2022/09/16 08:28:48;;;;;;;6.22;0.80;;;;;;;21.00;50.30;101089.25;5034877;28;20628;-81
2022/09/16 08:31:15;;;;;;;3.38;0.80;;;;;;;20.99;50.75;101090.22;5046300;28;20460;-75
2022/09/16 08:33:41;;;;;;;7.15;1.85;;;;;;;21.07;50.41;101096.66;5030599;28;20044;-77
2022/09/16 08:36:19;;;;;;;4.18;1.10;;;;;;;21.06;50.35;101102.91;5030231;28;20029;-75
2022/09/16 08:38:46;;;;;;;4.50;0.93;;;;;;;21.07;50.18;101100.13;5030045;28;20077;-73
2022/09/16 08:41:42;;;;;;;2.42;0.60;;;;;;;21.09;50.54;101103.47;5030138;28;20489;-82
2022/09/16 08:44:13;;;;;;;5.00;1.08;;;;;;;21.09;50.23;101103.47;5029710;28;20051;-77
2022/09/16 08:46:57;;;;;;;3.50;0.80;;;;;;;21.06;50.04;101094.97;5030422;28;20036;-79
2022/09/16 08:49:42;;;;;;;6.43;0.88;;;;;;;21.10;50.38;101096.38;5031063;28;20516;-71
2022/09/16 08:52:16;;;;;;;4.55;0.90;;;;;;;21.12;50.13;101099.72;5031014;28;20037;-68
2022/09/16 08:54:50;;;;;;;4.20;0.65;;;;;;;21.11;49.85;101096.25;5030799;28;20068;-69
2022/09/16 08:57:26;;;;;;;5.72;1.13;;;;;;;21.10;49.79;101086.59;5030596;28;20084;-69
2022/09/16 08:59:59;;;;;;;6.13;0.80;;;;;;;21.11;49.92;101093.59;5029539;28;20037;-69
2022/09/16 09:02:52;;;;;;;5.40;0.90;;;;;;;21.14;49.92;101100.41;5031120;28;20124;-69
2022/09/16 09:05:42;;;;;;;4.68;0.80;;;;;;;21.14;50.16;101103.91;5034546;28;20064;-67
2022/09/16 09:08:23;;;;;;;3.38;0.70;;;;;;;21.06;50.27;101090.53;5034253;28;20033;-69
2022/09/16 09:10:51;;;;;;;3.22;0.80;;;;;;;21.16;50.10;101101.97;5034337;28;20373;-69
2022/09/16 09:13:35;;;;;;;4.47;0.80;;;;;;;21.14;49.55;101100.41;5034208;28;20175;-68
2022/09/16 09:16:16;;;;;;;4.05;1.00;;;;;;;21.11;49.76;101100.69;5034358;28;20037;-69
2022/09/16 09:18:59;;;;;;;2.53;0.80;;;;;;;21.12;49.49;101105.03;5034288;28;20030;-68
2022/09/16 09:21:34;;;;;;;4.45;0.70;;;;;;;21.10;49.65;101099.84;5034525;28;20124;-69
2022/09/16 09:24:15;;;;;;;3.80;0.85;;;;;;;21.12;49.68;101102.38;5033860;28;20104;-69
2022/09/16 09:26:55;;;;;;;2.85;0.70;;;;;;;21.06;49.51;101097.63;5034509;28;20056;-68
2022/09/16 09:29:33;;;;;;;2.53;0.60;;;;;;;21.07;49.78;101100.13;5034284;28;21229;-67
2022/09/16 09:32:26;;;;;;;2.97;0.75;;;;;;;21.09;49.49;101100.81;5034492;28;20033;-68
2022/09/16 09:35:06;;;;;;;2.67;0.70;;;;;;;21.06;49.95;101089.66;5029139;28;20136;-69
2022/09/16 09:37:54;;;;;;;1.80;0.60;;;;;;;21.08;49.37;101100.97;5034092;28;20025;-69
2022/09/16 09:40:46;;;;;;;3.63;0.80;;;;;;;21.09;49.31;101090.22;5034039;28;20034;-69
2022/09/16 09:43:33;;;;;;;4.05;0.88;;;;;;;21.14;49.38;101092.47;5034365;28;20033;-69
2022/09/16 09:46:16;;;;;;;4.22;0.73;;;;;;;21.15;49.49;101099.44;5033964;28;20040;-69
2022/09/16 09:48:59;;;;;;;2.22;0.73;;;;;;;21.07;49.50;101092.19;5033717;28;20212;-69
2022/09/16 09:51:38;;;;;;;3.05;0.82;;;;;;;21.08;49.32;101085.06;5033463;28;20095;-69
2022/09/16 09:54:25;;;;;;;3.03;0.77;;;;;;;21.13;49.43;101085.50;5033185;28;20037;-69
2022/09/16 09:56:56;;;;;;;2.90;0.80;;;;;;;21.12;48.87;101082.00;5033335;28;20135;-69
2022/09/16 09:59:35;;;;;;;1.50;0.68;;;;;;;21.12;49.02;101079.34;5032976;28;20025;-69
2022/09/16 10:02:00;;;;;;;2.83;0.73;;;;;;;21.08;49.11;101079.75;5033405;28;20104;-68
2022/09/16 10:04:35;;;;;;;4.68;0.70;;;;;;;21.07;49.03;101086.88;5033714;28;20118;-68
2022/09/16 10:07:00;;;;;;;2.15;0.80;;;;;;;21.07;49.11;101102.78;5033304;28;21255;-69
2022/09/16 10:09:26;;;;;;;2.28;0.60;;;;;;;21.10;49.05;101122.88;5033402;28;20075;-68
2022/09/16 10:11:54;;;;;;;2.42;0.70;;;;;;;21.11;49.41;101141.28;5032989;28;20476;-68
2022/09/16 10:14:31;;;;;;;2.63;0.60;;;;;;;21.09;49.18;101135.28;5032966;28;20143;-69
2022/09/16 10:17:01;;;;;;;3.20;0.82;;;;;;;21.09;48.82;101132.63;5033832;28;20084;-69
2022/09/16 10:19:28;;;;;;;1.45;0.50;;;;;;;21.02;49.12;101123.56;5032916;28;20085;-69
2022/09/16 10:21:55;;;;;;;2.75;0.57;;;;;;;21.05;49.29;101127.75;5032855;28;20033;-68
2022/09/16 10:24:31;;;;;;;3.30;0.75;;;;;;;20.96;49.34;101114.34;5033133;28;20115;-69
2022/09/16 10:26:57;;;;;;;2.97;0.80;;;;;;;20.91;49.33;101102.50;5033246;28;20147;-68
2022/09/16 10:29:23;;;;;;;3.05;1.00;;;;;;;20.90;49.51;101117.53;5032923;28;20035;-69
2022/09/16 10:31:48;;;;;;;3.72;0.80;;;;;;;20.84;49.23;101115.44;5033027;28;20038;-69
2022/09/16 10:34:25;;;;;;;2.55;0.70;;;;;;;20.72;49.20;101098.81;5032371;28;20045;-70
2022/09/16 10:37:11;;;;;;;1.83;0.65;;;;;;;20.81;49.32;101124.50;5032808;28;20035;-70
2022/09/16 10:39:39;;;;;;;1.70;0.60;;;;;;;20.79;49.56;101121.16;5032578;28;20396;-67
2022/09/16 10:42:17;;;;;;;2.83;0.70;;;;;;;20.65;49.44;101098.53;5032622;28;20045;-68
2022/09/16 10:44:44;;;;;;;1.95;0.60;;;;;;;20.64;49.50;101098.66;5032467;28;20033;-70
2022/09/16 10:47:21;;;;;;;1.92;0.60;;;;;;;20.72;49.56;101116.53;5032547;28;20033;-69
2022/09/16 10:49:53;;;;;;;3.55;0.70;;;;;;;20.69;49.50;101114.13;5032501;28;20029;-68
2022/09/16 10:52:23;;;;;;;2.70;0.68;;;;;;;20.75;49.91;101124.19;5032624;28;20026;-69
2022/09/16 10:54:49;;;;;;;1.75;0.60;;;;;;;20.72;49.66;101117.34;5032345;28;20041;-69
2022/09/16 10:57:20;;;;;;;2.78;0.65;;;;;;;20.75;49.46;101118.91;5032460;28;20465;-68
2022/09/16 11:00:13;;;;;;;1.27;0.50;;;;;;;20.70;49.68;101105.25;5032129;28;20031;-69
2022/09/16 11:03:00;;;;;;;2.40;0.60;;;;;;;20.72;49.74;101116.53;5032867;28;20040;-69
2022/09/16 11:05:47;;;;;;;2.22;0.55;;;;;;;20.73;49.93;101121.69;5032239;28;20040;-70
2022/09/16 11:08:31;;;;;;;2.92;0.63;;;;;;;20.67;50.05;101111.63;5032105;28;20078;-68
2022/09/16 11:11:05;;;;;;;4.85;1.00;;;;;;;20.73;50.22;101120.81;5032216;28;20037;-69
2022/09/16 11:13:42;;;;;;;2.90;0.70;;;;;;;20.76;50.29;101118.78;5032350;28;20033;-70
2022/09/16 11:16:39;;;;;;;2.50;0.80;;;;;;;20.81;50.13;101119.19;5032320;28;20493;-69
2022/09/16 11:19:35;;;;;;;2.67;0.70;;;;;;;20.80;50.08;101104.25;5031981;28;20060;-69
2022/09/16 11:22:15;;;;;;;3.38;0.93;;;;;;;20.86;50.06;101115.31;5031582;28;20029;-74
2022/09/16 11:25:31;;;;;;;3.33;0.65;;;;;;;20.61;50.23;101091.78;5030848;28;20048;-80
2022/09/16 11:27:59;;;;;;;1.25;0.50;;;;;;;20.75;50.90;101109.13;5031099;28;20046;-84
2022/09/16 11:30:27;;;;;;;3.55;1.27;;;;;;;20.71;50.99;101107.75;5030746;28;20493;-72
2022/09/16 11:33:21;;;;;;;3.53;1.02;;;;;;;20.76;50.80;101112.63;5031701;28;20033;-77
2022/09/16 11:36:06;;;;;;;3.75;0.80;;;;;;;20.81;51.15;101116.53;5030746;28;20150;-83
2022/09/16 11:39:30;;;;;;;3.15;0.70;;;;;;;20.87;51.06;101117.81;5031328;28;20090;-78
2022/09/16 11:42:31;;;;;;;2.55;0.90;;;;;;;20.92;51.14;101112.94;5038033;28;20041;-80
2022/09/16 11:45:05;;;;;;;2.17;0.70;;;;;;;20.97;50.64;101120.50;5018068;28;20132;-80
2022/09/16 11:47:44;;;;;;;1.90;0.63;;;;;;;21.04;50.57;101121.59;5030197;28;20596;-82